createdAt,value
2023-05-08T00:00:47.488Z,101653.90
2023-05-08T00:03:18.630Z,101657.90
2023-05-08T00:05:46.673Z,101658.94
2023-05-08T00:08:14.573Z,101655.83
2023-05-08T00:10:43.373Z,101656.08
2023-05-08T00:13:11.702Z,101654.55
2023-05-08T00:15:39.735Z,101660.33
2023-05-08T00:18:07.810Z,101661.00
2023-05-08T00:20:37.030Z,101659.45
2023-05-08T00:23:05.087Z,101665.20
2023-05-08T00:25:33.297Z,101666.23
2023-05-08T00:28:01.264Z,101666.67
2023-05-08T00:30:29.601Z,101671.40
2023-05-08T00:32:57.821Z,101668.75
2023-05-08T00:35:26.939Z,101674.60
2023-05-08T00:37:55.316Z,101675.55
2023-05-08T00:40:23.448Z,101673.68
2023-05-08T00:42:51.360Z,101675.60
2023-05-08T00:45:19.802Z,101679.20
2023-05-08T00:47:48.149Z,101681.48
2023-05-08T00:50:16.341Z,101679.13
2023-05-08T00:52:45.071Z,101675.98
2023-05-08T00:55:13.662Z,101678.99
2023-05-08T00:57:42.029Z,101683.63
2023-05-08T01:00:10.771Z,101685.02
2023-05-08T01:02:40.804Z,101688.48
2023-05-08T01:05:10.050Z,101689.35
2023-05-08T01:07:39.049Z,101692.67
2023-05-08T01:10:07.681Z,101697.36
2023-05-08T01:12:49.792Z,101698.93
2023-05-08T01:15:29.451Z,101705.48
2023-05-08T01:18:12.689Z,101706.91
2023-05-08T01:20:49.608Z,101709.01
2023-05-08T01:23:23.266Z,101710.56
2023-05-08T01:26:12.357Z,101707.87
2023-05-08T01:29:17.975Z,101713.24
2023-05-08T01:32:21.360Z,101714.77
2023-05-08T01:35:19.816Z,101715.46
2023-05-08T01:38:12.757Z,101714.69
2023-05-08T01:40:46.681Z,101716.06
2023-05-08T01:43:25.459Z,101720.50
2023-05-08T01:45:56.209Z,101721.55
2023-05-08T01:48:35.861Z,101726.07
2023-05-08T01:51:17.128Z,101722.47
2023-05-08T01:53:49.649Z,101727.73
2023-05-08T01:56:22.612Z,101727.32
2023-05-08T01:58:53.098Z,101725.55
2023-05-08T02:01:24.374Z,101724.94
2023-05-08T02:03:54.160Z,101726.20
2023-05-08T02:06:23.540Z,101725.95
2023-05-08T02:08:53.220Z,101726.56
2023-05-08T02:11:22.946Z,101730.48
2023-05-08T02:13:52.805Z,101731.67
2023-05-08T02:16:22.110Z,101737.09
2023-05-08T02:18:53.604Z,101740.34
2023-05-08T02:21:24.194Z,101742.44
2023-05-08T02:23:54.702Z,101735.14
2023-05-08T02:26:23.497Z,101742.79
2023-05-08T02:28:55.658Z,101739.40
2023-05-08T02:31:24.987Z,101733.59
2023-05-08T02:33:54.141Z,101737.82
2023-05-08T02:36:23.156Z,101740.69
2023-05-08T02:38:54.248Z,101739.48
2023-05-08T02:41:28.533Z,101738.24
2023-05-08T02:44:04.128Z,101741.33
2023-05-08T02:46:54.087Z,101739.05
2023-05-08T02:49:46.016Z,101741.96
2023-05-08T02:52:18.897Z,101741.65
2023-05-08T02:54:58.641Z,101740.09
2023-05-08T02:57:51.131Z,101740.48
2023-05-08T03:00:27.839Z,101740.29
2023-05-08T03:03:01.392Z,101744.48
2023-05-08T03:05:32.052Z,101742.86
2023-05-08T03:08:05.929Z,101744.44
2023-05-08T03:10:36.959Z,101750.10
2023-05-08T03:13:07.356Z,101744.88
2023-05-08T03:15:49.849Z,101745.10
2023-05-08T03:18:19.353Z,101745.77
2023-05-08T03:20:53.019Z,101741.08
2023-05-08T03:23:26.328Z,101742.82
2023-05-08T03:25:56.627Z,101742.44
2023-05-08T03:28:26.081Z,101745.65
2023-05-08T03:30:57.495Z,101745.77
2023-05-08T03:33:27.014Z,101753.21
2023-05-08T03:35:56.661Z,101753.27
2023-05-08T03:38:25.040Z,101752.96
2023-05-08T03:40:54.082Z,101750.52
2023-05-08T03:43:24.971Z,101753.30
2023-05-08T03:45:54.580Z,101753.48
2023-05-08T03:48:24.112Z,101750.07
2023-05-08T03:50:52.828Z,101752.86
2023-05-08T03:53:22.064Z,101746.79
2023-05-08T03:55:52.828Z,101743.54
2023-05-08T03:58:28.746Z,101743.25
2023-05-08T04:05:39.782Z,101750.67
2023-05-08T04:08:32.453Z,101757.67
2023-05-08T04:11:26.891Z,101757.86
2023-05-08T04:14:02.205Z,101759.17
2023-05-08T04:16:35.614Z,101762.59
2023-05-08T04:19:11.038Z,101763.83
2023-05-08T04:21:43.376Z,101768.46
2023-05-08T04:24:15.980Z,101768.48
2023-05-08T04:26:45.925Z,101772.07
2023-05-08T04:29:15.272Z,101771.65
2023-05-08T04:34:37.844Z,101768.45
2023-05-08T04:37:08.223Z,101768.38
2023-05-08T04:39:36.736Z,101767.85
2023-05-08T04:42:05.066Z,101767.96
2023-05-08T04:44:35.049Z,101765.77
2023-05-08T04:47:02.944Z,101763.11
2023-05-08T04:49:31.303Z,101764.34
2023-05-08T04:51:59.435Z,101764.88
2023-05-08T04:54:27.835Z,101761.82
2023-05-08T04:56:57.035Z,101769.00
2023-05-08T04:59:25.244Z,101766.98
2023-05-08T05:01:53.509Z,101766.27
2023-05-08T05:04:22.584Z,101768.29
2023-05-08T05:06:50.843Z,101774.11
2023-05-08T05:09:18.906Z,101773.49
2023-05-08T05:11:47.791Z,101771.96
2023-05-08T05:14:16.093Z,101776.02
2023-05-08T05:16:45.255Z,101776.95
2023-05-08T05:19:13.784Z,101780.02
2023-05-08T05:21:42.298Z,101782.23
2023-05-08T05:24:11.488Z,101785.27
2023-05-08T05:26:39.769Z,101784.03
2023-05-08T05:29:08.995Z,101789.82
2023-05-08T05:31:37.809Z,101787.99
2023-05-08T05:34:06.040Z,101784.20
2023-05-08T05:36:34.475Z,101788.95
2023-05-08T05:39:03.215Z,101790.21
2023-05-08T05:41:32.073Z,101794.05
2023-05-08T05:44:00.271Z,101796.84
2023-05-08T05:46:32.576Z,101796.77
2023-05-08T05:49:02.608Z,101800.01
2023-05-08T05:51:30.994Z,101798.45
2023-05-08T05:53:59.096Z,101802.10
2023-05-08T05:56:28.290Z,101800.85
2023-05-08T05:58:57.025Z,101803.02
2023-05-08T06:01:25.267Z,101800.94
2023-05-08T06:03:53.757Z,101804.04
2023-05-08T06:06:22.700Z,101802.05
2023-05-08T06:08:50.949Z,101802.63
2023-05-08T06:11:19.846Z,101804.64
2023-05-08T06:13:50.601Z,101805.44
2023-05-08T06:16:23.315Z,101803.58
2023-05-08T06:18:51.698Z,101804.80
2023-05-08T06:21:20.668Z,101801.10
2023-05-08T06:23:48.962Z,101796.96
2023-05-08T06:26:17.431Z,101796.85
2023-05-08T06:28:48.800Z,101802.27
2023-05-08T06:31:17.823Z,101801.90
2023-05-08T06:33:45.894Z,101798.20
2023-05-08T06:36:13.951Z,101802.98
2023-05-08T06:38:41.990Z,101802.90
2023-05-08T06:41:10.113Z,101796.44
2023-05-08T06:43:38.166Z,101795.31
2023-05-08T06:46:09.066Z,101797.54
2023-05-08T06:48:37.186Z,101795.16
2023-05-08T06:51:05.209Z,101797.83
2023-05-08T06:53:33.242Z,101794.30
2023-05-08T06:56:01.361Z,101796.25
2023-05-08T06:58:31.612Z,101791.08
2023-05-08T07:01:00.038Z,101792.95
2023-05-08T07:03:28.281Z,101790.20
2023-05-08T07:05:56.419Z,101786.78
2023-05-08T07:08:24.552Z,101793.23
2023-05-08T07:10:53.331Z,101791.33
2023-05-08T07:13:22.197Z,101790.39
2023-05-08T07:15:50.498Z,101793.23
2023-05-08T07:18:18.640Z,101789.95
2023-05-08T07:20:47.443Z,101800.40
2023-05-08T07:23:16.879Z,101804.27
2023-05-08T07:25:45.046Z,101804.55
2023-05-08T07:28:13.821Z,101802.73
2023-05-08T07:30:43.016Z,101806.27
2023-05-08T07:33:11.731Z,101804.88
2023-05-08T07:35:40.973Z,101800.64
2023-05-08T07:38:09.182Z,101803.73
2023-05-08T07:40:37.285Z,101804.04
2023-05-08T07:43:05.363Z,101799.88
2023-05-08T07:45:34.622Z,101800.56
2023-05-08T07:48:02.812Z,101804.64
2023-05-08T07:50:31.677Z,101801.13
2023-05-08T07:52:59.821Z,101803.92
2023-05-08T07:55:28.141Z,101800.73
2023-05-08T07:57:56.174Z,101799.40
2023-05-08T08:00:24.246Z,101803.36
2023-05-08T08:02:52.620Z,101796.86
2023-05-08T08:05:21.125Z,101798.63
2023-05-08T08:07:49.189Z,101800.90
2023-05-08T08:10:17.301Z,101799.96
2023-05-08T08:12:46.704Z,101801.48
2023-05-08T08:15:15.152Z,101804.41
2023-05-08T08:17:43.329Z,101804.80
2023-05-08T08:20:11.574Z,101797.08
2023-05-08T08:22:40.573Z,101794.20
2023-05-08T08:25:09.120Z,101789.84
2023-05-08T08:27:37.192Z,101794.50
2023-05-08T08:30:16.077Z,101785.67
2023-05-08T08:32:47.368Z,101786.27
2023-05-08T08:35:17.094Z,101781.00
2023-05-08T08:37:45.529Z,101786.91
2023-05-08T08:40:13.705Z,101782.58
2023-05-08T08:42:41.966Z,101785.50
2023-05-08T08:45:11.012Z,101788.58
2023-05-08T08:47:42.871Z,101782.52
2023-05-08T08:50:14.633Z,101782.00
2023-05-08T08:52:43.061Z,101791.46
2023-05-08T08:55:15.502Z,101781.67
2023-05-08T08:58:05.051Z,101782.89
2023-05-08T09:00:36.621Z,101785.71
2023-05-08T09:03:08.002Z,101787.63
2023-05-08T09:05:37.054Z,101782.16
2023-05-08T09:08:07.299Z,101781.45
2023-05-08T09:10:36.285Z,101779.15
2023-05-08T09:13:05.367Z,101784.84
2023-05-08T09:15:34.123Z,101779.80
2023-05-08T09:18:02.991Z,101788.35
2023-05-08T09:20:31.838Z,101783.75
2023-05-08T09:23:02.866Z,101786.58
2023-05-08T09:25:44.905Z,101783.11
2023-05-08T09:28:20.517Z,101783.27
2023-05-08T09:30:54.399Z,101776.15
2023-05-08T09:33:28.377Z,101773.96
2023-05-08T09:35:57.658Z,101771.21
2023-05-08T09:38:32.299Z,101769.91
2023-05-08T09:41:10.130Z,101767.48
2023-05-08T09:43:39.413Z,101768.08
2023-05-08T09:46:27.086Z,101770.23
2023-05-08T09:49:00.788Z,101764.20
2023-05-08T09:51:31.279Z,101760.39
2023-05-08T09:54:00.211Z,101760.40
2023-05-08T09:56:37.542Z,101763.38
2023-05-08T09:59:23.220Z,101762.48
2023-05-08T10:01:51.704Z,101759.39
2023-05-08T10:04:36.944Z,101756.90
2023-05-08T10:07:05.157Z,101752.98
2023-05-08T10:09:46.805Z,101753.77
2023-05-08T10:12:19.426Z,101752.77
2023-05-08T10:14:48.033Z,101753.14
2023-05-08T10:17:25.043Z,101747.36
2023-05-08T10:20:02.982Z,101746.09
2023-05-08T10:22:36.221Z,101742.16
2023-05-08T10:25:11.154Z,101744.41
2023-05-08T10:27:48.458Z,101738.72
2023-05-08T10:30:17.543Z,101740.54
2023-05-08T10:32:52.730Z,101733.63
2023-05-08T10:35:22.025Z,101731.36
2023-05-08T10:37:50.567Z,101726.52
2023-05-08T10:40:21.444Z,101726.55
2023-05-08T10:42:51.453Z,101731.18
2023-05-08T10:45:20.197Z,101731.19
2023-05-08T10:48:04.320Z,101733.30
2023-05-08T10:50:42.551Z,101729.14
2023-05-08T10:53:29.709Z,101728.89
2023-05-08T10:55:58.358Z,101731.62
2023-05-08T10:58:30.930Z,101726.02
2023-05-08T11:04:38.260Z,101728.23
2023-05-08T11:07:06.563Z,101724.84
2023-05-08T11:09:43.657Z,101724.44
2023-05-08T11:12:28.013Z,101720.23
2023-05-08T11:15:07.625Z,101716.42
2023-05-08T11:17:35.890Z,101706.92
2023-05-08T11:20:06.195Z,101701.19
2023-05-08T11:22:35.084Z,101704.83
2023-05-08T11:25:05.931Z,101705.30
2023-05-08T11:27:48.743Z,101700.55
2023-05-08T11:30:39.236Z,101698.42
2023-05-08T11:33:07.290Z,101696.80
2023-05-08T11:35:45.013Z,101699.23
2023-05-08T11:38:18.705Z,101696.14
2023-05-08T11:41:02.552Z,101694.09
2023-05-08T11:43:32.860Z,101687.77
2023-05-08T11:46:13.996Z,101693.65
2023-05-08T11:48:42.392Z,101684.05
2023-05-08T11:51:10.494Z,101683.81
2023-05-08T11:53:38.395Z,101692.23
2023-05-08T11:56:06.393Z,101683.86
2023-05-08T11:58:34.327Z,101682.56
2023-05-08T12:01:02.531Z,101686.98
2023-05-08T12:03:30.641Z,101683.31
2023-05-08T12:05:59.999Z,101684.21
2023-05-08T12:08:28.088Z,101684.82
2023-05-08T12:10:59.330Z,101676.15
2023-05-08T12:13:30.184Z,101677.45
2023-05-08T12:16:00.779Z,101677.09
2023-05-08T12:18:30.540Z,101672.10
2023-05-08T12:21:01.151Z,101671.98
2023-05-08T12:23:30.292Z,101667.63
2023-05-08T12:26:02.171Z,101666.27
2023-05-08T12:28:32.518Z,101661.98
2023-05-08T12:31:03.937Z,101666.14
2023-05-08T12:33:33.743Z,101656.54
2023-05-08T12:36:02.375Z,101653.58
2023-05-08T12:38:30.366Z,101649.45
2023-05-08T12:40:58.937Z,101648.67
2023-05-08T12:43:37.520Z,101647.84
2023-05-08T12:46:05.882Z,101652.50
2023-05-08T12:48:34.088Z,101650.46
2023-05-08T12:51:03.981Z,101650.78
2023-05-08T12:53:33.265Z,101651.01
2023-05-08T12:56:03.556Z,101648.52
2023-05-08T12:58:33.987Z,101642.77
2023-05-08T13:01:13.497Z,101642.83
2023-05-08T13:03:42.165Z,101635.91
2023-05-08T13:06:21.656Z,101632.36
2023-05-08T13:08:57.807Z,101631.55
2023-05-08T13:11:34.321Z,101633.45
2023-05-08T13:14:02.707Z,101633.60
2023-05-08T13:16:31.212Z,101629.67
2023-05-08T13:18:59.364Z,101628.73
2023-05-08T13:21:28.050Z,101623.11
2023-05-08T13:23:56.888Z,101630.46
2023-05-08T13:26:25.830Z,101632.05
2023-05-08T13:28:56.488Z,101631.66
2023-05-08T13:31:27.531Z,101631.45
2023-05-08T13:33:55.778Z,101631.09
2023-05-08T13:36:24.580Z,101627.21
2023-05-08T13:38:54.830Z,101613.55
2023-05-08T13:41:23.192Z,101605.50
2023-05-08T13:43:51.306Z,101602.80
2023-05-08T13:46:19.309Z,101605.73
2023-05-08T13:48:48.064Z,101599.62
2023-05-08T13:51:16.828Z,101593.52
2023-05-08T13:53:45.182Z,101600.46
2023-05-08T13:56:13.696Z,101598.27
2023-05-08T13:58:41.822Z,101600.11
2023-05-08T14:01:24.971Z,101597.02
2023-05-08T14:03:55.592Z,101591.39
2023-05-08T14:06:30.094Z,101586.47
2023-05-08T14:09:01.049Z,101583.36
2023-05-08T14:11:30.146Z,101586.59
2023-05-08T14:13:58.421Z,101587.55
2023-05-08T14:16:26.795Z,101591.09
2023-05-08T14:18:55.639Z,101596.13
2023-05-08T14:21:24.808Z,101591.48
2023-05-08T14:23:52.896Z,101593.18
2023-05-08T14:26:21.559Z,101594.23
2023-05-08T14:28:49.796Z,101585.64
2023-05-08T14:31:18.054Z,101581.89
2023-05-08T14:33:46.082Z,101585.05
2023-05-08T14:36:14.253Z,101584.30
2023-05-08T14:38:42.241Z,101587.11
2023-05-08T14:41:10.259Z,101590.73
2023-05-08T14:43:38.507Z,101589.13
2023-05-08T14:46:06.600Z,101584.71
2023-05-08T14:48:34.665Z,101579.02
2023-05-08T14:51:02.867Z,101578.44
2023-05-08T14:53:32.099Z,101578.76
2023-05-08T14:56:00.695Z,101575.79
2023-05-08T14:58:28.940Z,101578.08
2023-05-08T15:00:56.958Z,101575.27
2023-05-08T15:03:28.754Z,101575.07
2023-05-08T15:06:09.039Z,101579.00
2023-05-08T15:08:37.141Z,101586.61
2023-05-08T15:11:05.288Z,101589.77
2023-05-08T15:13:33.221Z,101590.83
2023-05-08T15:16:01.307Z,101588.38
2023-05-08T15:18:29.373Z,101582.45
2023-05-08T15:20:59.637Z,101583.84
2023-05-08T15:23:27.805Z,101588.40
2023-05-08T15:25:55.751Z,101578.61
2023-05-08T15:28:23.922Z,101578.61
2023-05-08T15:30:52.033Z,101579.14
2023-05-08T15:33:20.120Z,101581.23
2023-05-08T15:35:48.146Z,101578.09
2023-05-08T15:38:16.253Z,101574.95
2023-05-08T15:40:44.252Z,101574.24
2023-05-08T15:43:12.638Z,101574.23
2023-05-08T15:45:40.716Z,101574.06
2023-05-08T15:48:08.817Z,101569.53
2023-05-08T15:50:36.905Z,101571.98
2023-05-08T15:53:05.791Z,101565.53
2023-05-08T15:55:33.856Z,101565.36
2023-05-08T15:58:01.955Z,101564.84
2023-05-08T16:00:48.886Z,101562.74
2023-05-08T16:03:17.832Z,101560.66
2023-05-08T16:05:46.481Z,101559.44
2023-05-08T16:08:15.530Z,101559.27
2023-05-08T16:10:44.270Z,101558.92
2023-05-08T16:13:12.634Z,101555.60
2023-05-08T16:15:41.403Z,101552.81
2023-05-08T16:18:09.550Z,101551.92
2023-05-08T16:20:40.517Z,101546.17
2023-05-08T16:23:08.779Z,101554.21
2023-05-08T16:25:37.023Z,101559.98
2023-05-08T16:28:05.361Z,101561.90
2023-05-08T16:30:33.353Z,101562.77
2023-05-08T16:33:01.930Z,101559.80
2023-05-08T16:35:33.191Z,101561.54
2023-05-08T16:38:02.952Z,101560.66
2023-05-08T16:40:31.346Z,101559.79
2023-05-08T16:43:01.123Z,101557.69
2023-05-08T16:45:29.662Z,101559.77
2023-05-08T16:47:57.630Z,101558.20
2023-05-08T16:50:25.585Z,101558.02
2023-05-08T16:52:53.814Z,101555.91
2023-05-08T16:55:21.731Z,101554.84
2023-05-08T16:57:49.817Z,101562.48
2023-05-08T17:00:18.354Z,101564.70
2023-05-08T17:02:46.458Z,101567.11
2023-05-08T17:05:15.078Z,101566.92
2023-05-08T17:07:43.216Z,101566.58
2023-05-08T17:10:12.048Z,101571.08
2023-05-08T17:12:40.062Z,101572.95
2023-05-08T17:15:08.611Z,101575.37
2023-05-08T17:17:36.642Z,101574.12
2023-05-08T17:20:05.497Z,101577.21
2023-05-08T17:22:33.657Z,101572.48
2023-05-08T17:25:02.226Z,101572.27
2023-05-08T17:27:31.022Z,101568.75
2023-05-08T17:29:59.033Z,101573.04
2023-05-08T17:32:27.133Z,101572.48
2023-05-08T17:34:55.296Z,101571.39
2023-05-08T17:37:23.286Z,101573.77
2023-05-08T17:39:51.318Z,101576.87
2023-05-08T17:42:19.291Z,101576.83
2023-05-08T17:44:47.277Z,101576.94
2023-05-08T17:47:15.654Z,101582.80
2023-05-08T17:49:43.891Z,101583.42
2023-05-08T17:52:11.990Z,101584.36
2023-05-08T17:54:40.007Z,101587.39
2023-05-08T17:57:09.828Z,101587.14
2023-05-08T17:59:37.766Z,101583.92
2023-05-08T18:02:06.541Z,101591.80
2023-05-08T18:04:34.795Z,101588.05
2023-05-08T18:07:04.357Z,101592.64
2023-05-08T18:09:33.002Z,101592.48
2023-05-08T18:12:02.595Z,101597.49
2023-05-08T18:14:33.263Z,101599.00
2023-05-08T18:17:01.602Z,101602.02
2023-05-08T18:19:29.650Z,101609.04
2023-05-08T18:21:57.626Z,101609.27
2023-05-08T18:24:25.703Z,101609.79
2023-05-08T18:26:53.687Z,101610.16
2023-05-08T18:29:21.812Z,101619.71
2023-05-08T18:31:49.802Z,101626.63
2023-05-08T18:34:17.837Z,101629.70
2023-05-08T18:36:45.872Z,101631.89
2023-05-08T18:39:14.044Z,101631.44
2023-05-08T18:41:42.247Z,101631.00
2023-05-08T18:44:11.228Z,101633.85
2023-05-08T18:46:39.305Z,101635.41
2023-05-08T18:49:07.446Z,101639.61
2023-05-08T18:51:44.449Z,101646.93
2023-05-08T18:54:12.476Z,101650.67
2023-05-08T18:56:40.523Z,101653.31
2023-05-08T18:59:08.820Z,101659.10
2023-05-08T19:04:37.407Z,101663.45
2023-05-08T19:07:06.071Z,101661.41
2023-05-08T19:09:34.279Z,101663.18
2023-05-08T19:12:02.353Z,101664.55
2023-05-08T19:14:30.457Z,101668.59
2023-05-08T19:16:58.732Z,101668.80
2023-05-08T19:19:27.707Z,101669.81
2023-05-08T19:21:55.721Z,101670.20
2023-05-08T19:24:26.349Z,101669.96
2023-05-08T19:26:54.299Z,101672.58
2023-05-08T19:29:22.413Z,101673.45
2023-05-08T19:31:50.553Z,101672.23
2023-05-08T19:34:18.574Z,101671.49
2023-05-08T19:36:46.947Z,101670.92
2023-05-08T19:39:14.991Z,101670.80
2023-05-08T19:41:43.798Z,101668.23
2023-05-08T19:44:11.891Z,101666.19
2023-05-08T19:46:40.359Z,101671.83
2023-05-08T19:49:08.812Z,101671.88
2023-05-08T19:51:36.934Z,101674.61
2023-05-08T19:54:05.824Z,101670.83
2023-05-08T19:56:35.068Z,101667.55
2023-05-08T19:59:03.105Z,101662.02
2023-05-08T20:01:31.222Z,101663.05
2023-05-08T20:04:00.726Z,101656.54
2023-05-08T20:06:29.768Z,101656.63
2023-05-08T20:08:57.753Z,101661.60
2023-05-08T20:11:26.136Z,101660.05
2023-05-08T20:13:54.996Z,101659.54
2023-05-08T20:16:23.133Z,101658.69
2023-05-08T20:18:53.560Z,101653.95
2023-05-08T20:21:22.207Z,101653.95
2023-05-08T20:23:51.969Z,101649.06
2023-05-08T20:26:20.137Z,101648.09
2023-05-08T20:28:48.643Z,101652.23
2023-05-08T20:31:17.496Z,101652.98
2023-05-08T20:33:45.683Z,101656.63
2023-05-08T20:36:13.798Z,101654.80
2023-05-08T20:38:42.288Z,101651.77
2023-05-08T20:41:10.292Z,101654.98
2023-05-08T20:43:38.588Z,101655.21
2023-05-08T20:46:06.701Z,101658.95
2023-05-08T20:48:34.799Z,101658.58
2023-05-08T20:51:03.219Z,101658.02
2023-05-08T20:53:32.211Z,101655.89
2023-05-08T20:56:05.089Z,101657.30
2023-05-08T20:58:33.683Z,101658.20
2023-05-08T21:01:01.999Z,101652.75
2023-05-08T21:03:31.056Z,101654.27
2023-05-08T21:05:59.284Z,101655.12
2023-05-08T21:08:27.617Z,101651.63
2023-05-08T21:10:56.266Z,101653.86
2023-05-08T21:13:25.352Z,101651.94
2023-05-08T21:15:53.631Z,101650.86
2023-05-08T21:18:21.660Z,101650.43
2023-05-08T21:20:50.510Z,101653.17
2023-05-08T21:23:21.049Z,101653.13
2023-05-08T21:25:49.978Z,101652.65
2023-05-08T21:28:18.103Z,101648.42
2023-05-08T21:30:46.397Z,101647.24
2023-05-08T21:33:15.495Z,101641.41
2023-05-08T21:35:43.761Z,101640.86
2023-05-08T21:38:12.257Z,101644.80
2023-05-08T21:40:40.475Z,101645.12
2023-05-08T21:43:11.477Z,101643.98
2023-05-08T21:45:51.679Z,101645.27
2023-05-08T21:48:19.816Z,101648.27
2023-05-08T21:50:47.808Z,101647.05
2023-05-08T21:53:16.179Z,101649.15
2023-05-08T21:55:44.170Z,101646.00
2023-05-08T21:58:13.161Z,101649.96
2023-05-08T22:00:41.564Z,101649.05
2023-05-08T22:03:09.581Z,101646.15
2023-05-08T22:05:37.749Z,101648.55
2023-05-08T22:08:06.233Z,101644.23
2023-05-08T22:10:34.182Z,101643.98
2023-05-08T22:13:02.680Z,101642.88
2023-05-08T22:15:31.171Z,101648.16
2023-05-08T22:18:00.262Z,101644.98
2023-05-08T22:20:28.434Z,101644.23
2023-05-08T22:22:56.345Z,101644.48
2023-05-08T22:25:25.391Z,101641.56
2023-05-08T22:27:53.447Z,101642.29
2023-05-08T22:30:21.801Z,101639.19
2023-05-08T22:32:56.251Z,101640.23
2023-05-08T22:35:26.866Z,101636.66
2023-05-08T22:37:57.321Z,101637.61
2023-05-08T22:40:28.953Z,101636.77
2023-05-08T22:42:58.871Z,101636.56
2023-05-08T22:45:27.273Z,101637.91
2023-05-08T22:47:55.707Z,101637.77
2023-05-08T22:50:23.917Z,101631.95
2023-05-08T22:52:52.580Z,101630.55
2023-05-08T22:55:20.708Z,101634.07
2023-05-08T22:57:48.765Z,101635.06
2023-05-08T23:00:16.935Z,101635.52
2023-05-08T23:02:45.086Z,101637.08
2023-05-08T23:05:13.333Z,101636.58
2023-05-08T23:07:41.580Z,101635.09
2023-05-08T23:10:10.185Z,101635.67
2023-05-08T23:12:38.213Z,101635.52
2023-05-08T23:15:07.140Z,101634.96
2023-05-08T23:17:35.303Z,101634.54
2023-05-08T23:20:04.404Z,101638.02
2023-05-08T23:22:32.865Z,101634.95
2023-05-08T23:25:00.915Z,101637.57
2023-05-08T23:27:28.994Z,101628.56
2023-05-08T23:29:57.048Z,101635.50
2023-05-08T23:32:25.314Z,101637.94
2023-05-08T23:34:53.402Z,101638.79
2023-05-08T23:37:22.051Z,101640.14
2023-05-08T23:39:50.099Z,101641.34
2023-05-08T23:42:18.028Z,101641.67
2023-05-08T23:44:46.049Z,101640.16
2023-05-08T23:47:14.349Z,101641.68
2023-05-08T23:49:42.422Z,101638.05
2023-05-08T23:52:10.495Z,101641.69
2023-05-08T23:54:38.476Z,101640.76
2023-05-08T23:57:06.708Z,101641.29
2023-05-08T23:59:35.153Z,101640.79
